sensor_id;sensor_type;location;lat;lon;timestamp;temperature;humidity
40696;DHT22;40425;51.102;17.208;2023-05-16T00:02:03;11.40;99.90
40696;DHT22;40425;51.102;17.208;2023-05-16T00:07:05;11.40;99.90
40696;DHT22;40425;51.102;17.208;2023-05-16T00:12:06;11.50;99.90
40696;DHT22;40425;51.102;17.208;2023-05-16T00:17:08;11.50;99.90
40696;DHT22;40425;51.102;17.208;2023-05-16T00:22:11;11.40;99.90
40696;DHT22;40425;51.102;17.208;2023-05-16T00:27:12;11.30;99.90
40696;DHT22;40425;51.102;17.208;2023-05-16T00:32:13;11.20;99.90
40696;DHT22;40425;51.102;17.208;2023-05-16T00:37:14;11.20;99.90
40696;DHT22;40425;51.102;17.208;2023-05-16T00:42:17;11.40;99.90
40696;DHT22;40425;51.102;17.208;2023-05-16T00:47:18;11.30;99.90
40696;DHT22;40425;51.102;17.208;2023-05-16T00:52:20;11.20;99.90
40696;DHT22;40425;51.102;17.208;2023-05-16T00:57:21;11.00;99.90
40696;DHT22;40425;51.102;17.208;2023-05-16T01:02:22;11.10;99.90
40696;DHT22;40425;51.102;17.208;2023-05-16T01:07:23;11.20;99.90
40696;DHT22;40425;51.102;17.208;2023-05-16T01:28:43;11.10;99.90
40696;DHT22;40425;51.102;17.208;2023-05-16T01:33:44;11.00;99.90
40696;DHT22;40425;51.102;17.208;2023-05-16T01:38:59;11.10;99.90
40696;DHT22;40425;51.102;17.208;2023-05-16T01:44:06;11.00;99.90
40696;DHT22;40425;51.102;17.208;2023-05-16T01:54:18;11.10;99.90
40696;DHT22;40425;51.102;17.208;2023-05-16T01:59:20;11.10;99.90
40696;DHT22;40425;51.102;17.208;2023-05-16T02:04:23;11.20;99.90
40696;DHT22;40425;51.102;17.208;2023-05-16T02:09:24;11.30;99.90
40696;DHT22;40425;51.102;17.208;2023-05-16T02:14:25;11.20;99.90
40696;DHT22;40425;51.102;17.208;2023-05-16T02:19:26;11.20;99.90
40696;DHT22;40425;51.102;17.208;2023-05-16T02:24:27;11.00;99.90
40696;DHT22;40425;51.102;17.208;2023-05-16T02:29:28;11.10;99.90
40696;DHT22;40425;51.102;17.208;2023-05-16T02:34:28;11.00;99.90
40696;DHT22;40425;51.102;17.208;2023-05-16T02:39:29;10.90;99.90
40696;DHT22;40425;51.102;17.208;2023-05-16T02:44:32;11.00;99.90
40696;DHT22;40425;51.102;17.208;2023-05-16T02:49:33;11.20;99.90
40696;DHT22;40425;51.102;17.208;2023-05-16T02:54:34;11.10;99.90
40696;DHT22;40425;51.102;17.208;2023-05-16T02:59:35;10.90;99.90
40696;DHT22;40425;51.102;17.208;2023-05-16T03:04:36;10.90;99.90
40696;DHT22;40425;51.102;17.208;2023-05-16T03:09:37;10.90;99.90
40696;DHT22;40425;51.102;17.208;2023-05-16T03:14:38;11.10;99.90
40696;DHT22;40425;51.102;17.208;2023-05-16T03:19:39;11.00;99.90
40696;DHT22;40425;51.102;17.208;2023-05-16T03:24:41;11.10;99.90
40696;DHT22;40425;51.102;17.208;2023-05-16T03:29:42;11.20;99.90
40696;DHT22;40425;51.102;17.208;2023-05-16T03:34:42;11.30;99.90
40696;DHT22;40425;51.102;17.208;2023-05-16T03:39:43;11.60;99.90
40696;DHT22;40425;51.102;17.208;2023-05-16T03:44:44;11.50;99.90
40696;DHT22;40425;51.102;17.208;2023-05-16T03:49:45;11.80;99.90
40696;DHT22;40425;51.102;17.208;2023-05-16T03:54:46;12.00;99.90
40696;DHT22;40425;51.102;17.208;2023-05-16T03:59:47;12.50;99.90
40696;DHT22;40425;51.102;17.208;2023-05-16T04:04:48;12.50;99.90
40696;DHT22;40425;51.102;17.208;2023-05-16T04:09:50;13.20;99.90
40696;DHT22;40425;51.102;17.208;2023-05-16T04:14:51;13.40;99.90
40696;DHT22;40425;51.102;17.208;2023-05-16T04:19:52;13.50;99.90
40696;DHT22;40425;51.102;17.208;2023-05-16T04:24:53;13.60;99.90
40696;DHT22;40425;51.102;17.208;2023-05-16T04:29:54;13.80;99.90
40696;DHT22;40425;51.102;17.208;2023-05-16T04:34:55;14.00;99.90
40696;DHT22;40425;51.102;17.208;2023-05-16T04:39:56;14.20;99.90
40696;DHT22;40425;51.102;17.208;2023-05-16T04:44:58;14.40;99.90
40696;DHT22;40425;51.102;17.208;2023-05-16T04:49:59;14.80;99.90
40696;DHT22;40425;51.102;17.208;2023-05-16T04:55:00;14.80;99.90
40696;DHT22;40425;51.102;17.208;2023-05-16T05:00:01;14.60;99.90
40696;DHT22;40425;51.102;17.208;2023-05-16T05:05:05;14.30;99.90
40696;DHT22;40425;51.102;17.208;2023-05-16T05:10:07;14.10;99.90
40696;DHT22;40425;51.102;17.208;2023-05-16T05:15:08;14.00;99.90
40696;DHT22;40425;51.102;17.208;2023-05-16T05:20:10;14.00;99.90
40696;DHT22;40425;51.102;17.208;2023-05-16T05:25:11;14.00;99.90
40696;DHT22;40425;51.102;17.208;2023-05-16T05:30:12;14.10;99.90
40696;DHT22;40425;51.102;17.208;2023-05-16T05:35:13;14.20;99.90
40696;DHT22;40425;51.102;17.208;2023-05-16T05:40:15;14.10;99.90
40696;DHT22;40425;51.102;17.208;2023-05-16T05:45:16;14.10;99.90
40696;DHT22;40425;51.102;17.208;2023-05-16T05:50:17;14.30;99.90
40696;DHT22;40425;51.102;17.208;2023-05-16T05:55:17;14.30;99.90
40696;DHT22;40425;51.102;17.208;2023-05-16T06:00:19;14.40;99.90
40696;DHT22;40425;51.102;17.208;2023-05-16T06:05:19;14.50;99.90
40696;DHT22;40425;51.102;17.208;2023-05-16T06:10:20;14.60;99.90
40696;DHT22;40425;51.102;17.208;2023-05-16T06:15:21;14.60;99.90
40696;DHT22;40425;51.102;17.208;2023-05-16T06:20:22;14.70;99.90
40696;DHT22;40425;51.102;17.208;2023-05-16T06:25:23;14.80;99.90
40696;DHT22;40425;51.102;17.208;2023-05-16T06:30:24;15.00;99.90
40696;DHT22;40425;51.102;17.208;2023-05-16T06:35:25;15.10;99.90
40696;DHT22;40425;51.102;17.208;2023-05-16T06:40:25;15.10;99.90
40696;DHT22;40425;51.102;17.208;2023-05-16T06:45:26;15.30;99.90
40696;DHT22;40425;51.102;17.208;2023-05-16T06:50:27;15.30;99.90
40696;DHT22;40425;51.102;17.208;2023-05-16T06:55:28;15.20;99.90
40696;DHT22;40425;51.102;17.208;2023-05-16T07:00:29;15.40;99.90
40696;DHT22;40425;51.102;17.208;2023-05-16T07:05:30;15.40;99.90
40696;DHT22;40425;51.102;17.208;2023-05-16T07:10:31;15.70;99.90
40696;DHT22;40425;51.102;17.208;2023-05-16T07:15:32;15.90;99.90
40696;DHT22;40425;51.102;17.208;2023-05-16T07:20:32;15.90;99.90
40696;DHT22;40425;51.102;17.208;2023-05-16T07:25:33;15.90;99.90
40696;DHT22;40425;51.102;17.208;2023-05-16T07:30:34;16.10;99.90
40696;DHT22;40425;51.102;17.208;2023-05-16T07:35:35;16.00;99.90
40696;DHT22;40425;51.102;17.208;2023-05-16T07:40:36;16.10;99.90
40696;DHT22;40425;51.102;17.208;2023-05-16T07:45:38;16.20;99.90
40696;DHT22;40425;51.102;17.208;2023-05-16T07:50:42;16.20;99.90
40696;DHT22;40425;51.102;17.208;2023-05-16T07:55:43;16.30;99.90
40696;DHT22;40425;51.102;17.208;2023-05-16T08:00:44;16.50;99.90
40696;DHT22;40425;51.102;17.208;2023-05-16T08:05:45;16.60;99.90
40696;DHT22;40425;51.102;17.208;2023-05-16T08:10:48;16.80;99.90
40696;DHT22;40425;51.102;17.208;2023-05-16T08:15:49;17.00;99.90
40696;DHT22;40425;51.102;17.208;2023-05-16T08:20:50;17.30;99.90
40696;DHT22;40425;51.102;17.208;2023-05-16T08:25:50;17.40;99.90
40696;DHT22;40425;51.102;17.208;2023-05-16T08:30:54;17.70;99.90
40696;DHT22;40425;51.102;17.208;2023-05-16T08:35:55;17.70;99.90
40696;DHT22;40425;51.102;17.208;2023-05-16T08:40:56;17.70;99.90
40696;DHT22;40425;51.102;17.208;2023-05-16T08:45:56;17.90;99.90
40696;DHT22;40425;51.102;17.208;2023-05-16T08:50:58;18.20;99.90
40696;DHT22;40425;51.102;17.208;2023-05-16T08:56:00;18.10;99.90
40696;DHT22;40425;51.102;17.208;2023-05-16T09:01:03;18.30;99.90
40696;DHT22;40425;51.102;17.208;2023-05-16T09:06:08;18.50;99.90
40696;DHT22;40425;51.102;17.208;2023-05-16T09:11:09;18.50;99.90
40696;DHT22;40425;51.102;17.208;2023-05-16T09:16:17;18.80;99.90
40696;DHT22;40425;51.102;17.208;2023-05-16T09:21:18;18.60;99.90
40696;DHT22;40425;51.102;17.208;2023-05-16T09:26:21;18.60;99.90
40696;DHT22;40425;51.102;17.208;2023-05-16T09:31:24;19.00;99.90
40696;DHT22;40425;51.102;17.208;2023-05-16T09:36:27;19.10;99.60
40696;DHT22;40425;51.102;17.208;2023-05-16T09:41:32;19.40;99.90
40696;DHT22;40425;51.102;17.208;2023-05-16T09:46:37;19.30;99.00
40696;DHT22;40425;51.102;17.208;2023-05-16T09:51:37;19.30;99.00
40696;DHT22;40425;51.102;17.208;2023-05-16T09:56:50;19.60;98.60
40696;DHT22;40425;51.102;17.208;2023-05-16T10:01:52;19.80;96.40
40696;DHT22;40425;51.102;17.208;2023-05-16T10:06:56;19.80;97.10
40696;DHT22;40425;51.102;17.208;2023-05-16T10:12:01;19.70;99.60
40696;DHT22;40425;51.102;17.208;2023-05-16T10:17:06;19.70;96.50
40696;DHT22;40425;51.102;17.208;2023-05-16T10:22:07;19.60;96.10
40696;DHT22;40425;51.102;17.208;2023-05-16T10:27:10;19.90;96.70
40696;DHT22;40425;51.102;17.208;2023-05-16T10:32:12;20.00;96.70
40696;DHT22;40425;51.102;17.208;2023-05-16T10:37:14;19.90;95.20
40696;DHT22;40425;51.102;17.208;2023-05-16T10:42:15;20.10;95.30
40696;DHT22;40425;51.102;17.208;2023-05-16T10:47:21;20.20;94.00
40696;DHT22;40425;51.102;17.208;2023-05-16T10:52:32;20.50;92.90
40696;DHT22;40425;51.102;17.208;2023-05-16T10:57:33;20.70;91.80
40696;DHT22;40425;51.102;17.208;2023-05-16T11:02:40;20.60;92.00
40696;DHT22;40425;51.102;17.208;2023-05-16T11:07:41;20.40;92.40
40696;DHT22;40425;51.102;17.208;2023-05-16T11:17:43;20.80;92.10
40696;DHT22;40425;51.102;17.208;2023-05-16T11:22:44;21.20;90.50
40696;DHT22;40425;51.102;17.208;2023-05-16T11:27:47;20.90;90.00
40696;DHT22;40425;51.102;17.208;2023-05-16T11:32:48;20.80;92.80
40696;DHT22;40425;51.102;17.208;2023-05-16T11:37:50;20.80;93.50
40696;DHT22;40425;51.102;17.208;2023-05-16T11:42:51;21.10;91.70
40696;DHT22;40425;51.102;17.208;2023-05-16T11:47:52;21.10;91.50
40696;DHT22;40425;51.102;17.208;2023-05-16T11:52:53;20.90;92.10
40696;DHT22;40425;51.102;17.208;2023-05-16T11:57:57;20.50;93.60
40696;DHT22;40425;51.102;17.208;2023-05-16T12:03:02;20.10;94.70
40696;DHT22;40425;51.102;17.208;2023-05-16T12:08:04;20.20;94.70
40696;DHT22;40425;51.102;17.208;2023-05-16T12:13:06;20.40;96.30
40696;DHT22;40425;51.102;17.208;2023-05-16T12:18:07;20.30;95.80
40696;DHT22;40425;51.102;17.208;2023-05-16T12:23:12;20.40;96.10
40696;DHT22;40425;51.102;17.208;2023-05-16T12:28:14;20.00;95.30
40696;DHT22;40425;51.102;17.208;2023-05-16T12:33:15;19.70;95.60
40696;DHT22;40425;51.102;17.208;2023-05-16T12:38:18;20.00;95.30
40696;DHT22;40425;51.102;17.208;2023-05-16T12:43:21;19.90;96.10
40696;DHT22;40425;51.102;17.208;2023-05-16T12:48:23;19.80;97.00
40696;DHT22;40425;51.102;17.208;2023-05-16T12:53:29;19.60;96.80
40696;DHT22;40425;51.102;17.208;2023-05-16T12:58:41;19.40;97.10
40696;DHT22;40425;51.102;17.208;2023-05-16T13:03:42;19.20;97.80
40696;DHT22;40425;51.102;17.208;2023-05-16T13:08:43;19.00;99.10
40696;DHT22;40425;51.102;17.208;2023-05-16T13:13:44;18.90;99.50
40696;DHT22;40425;51.102;17.208;2023-05-16T13:18:45;18.80;99.40
40696;DHT22;40425;51.102;17.208;2023-05-16T13:23:46;18.60;99.70
40696;DHT22;40425;51.102;17.208;2023-05-16T13:28:47;18.30;99.20
40696;DHT22;40425;51.102;17.208;2023-05-16T13:33:51;17.80;99.90
40696;DHT22;40425;51.102;17.208;2023-05-16T13:38:52;17.80;99.90
40696;DHT22;40425;51.102;17.208;2023-05-16T13:43:53;17.60;99.90
40696;DHT22;40425;51.102;17.208;2023-05-16T13:48:53;17.50;99.90
40696;DHT22;40425;51.102;17.208;2023-05-16T13:53:54;17.40;99.90
40696;DHT22;40425;51.102;17.208;2023-05-16T13:58:55;17.30;99.90
40696;DHT22;40425;51.102;17.208;2023-05-16T14:03:56;17.20;99.90
40696;DHT22;40425;51.102;17.208;2023-05-16T14:08:58;17.00;99.90
40696;DHT22;40425;51.102;17.208;2023-05-16T14:13:58;17.00;99.90
40696;DHT22;40425;51.102;17.208;2023-05-16T14:18:59;17.00;99.90
40696;DHT22;40425;51.102;17.208;2023-05-16T14:24:00;16.80;99.90
40696;DHT22;40425;51.102;17.208;2023-05-16T14:29:01;16.70;99.90
40696;DHT22;40425;51.102;17.208;2023-05-16T14:34:02;16.60;99.90
40696;DHT22;40425;51.102;17.208;2023-05-16T14:39:03;16.50;99.90
40696;DHT22;40425;51.102;17.208;2023-05-16T14:44:04;16.30;99.90
40696;DHT22;40425;51.102;17.208;2023-05-16T14:49:05;16.10;99.90
40696;DHT22;40425;51.102;17.208;2023-05-16T14:54:06;16.20;99.90
40696;DHT22;40425;51.102;17.208;2023-05-16T14:59:08;16.10;99.90
40696;DHT22;40425;51.102;17.208;2023-05-16T15:04:09;15.90;99.90
40696;DHT22;40425;51.102;17.208;2023-05-16T15:09:10;15.70;99.90
40696;DHT22;40425;51.102;17.208;2023-05-16T15:14:11;15.50;99.90
40696;DHT22;40425;51.102;17.208;2023-05-16T15:19:12;15.30;99.90
40696;DHT22;40425;51.102;17.208;2023-05-16T15:24:13;15.30;99.90
40696;DHT22;40425;51.102;17.208;2023-05-16T15:29:14;15.40;99.90
40696;DHT22;40425;51.102;17.208;2023-05-16T15:34:15;15.30;99.90
40696;DHT22;40425;51.102;17.208;2023-05-16T15:39:16;15.30;99.90
40696;DHT22;40425;51.102;17.208;2023-05-16T15:44:17;15.20;99.90
40696;DHT22;40425;51.102;17.208;2023-05-16T15:49:18;15.20;99.90
40696;DHT22;40425;51.102;17.208;2023-05-16T15:54:20;15.30;99.90
40696;DHT22;40425;51.102;17.208;2023-05-16T15:59:21;15.30;99.90
40696;DHT22;40425;51.102;17.208;2023-05-16T16:04:22;15.20;99.90
40696;DHT22;40425;51.102;17.208;2023-05-16T16:09:23;15.00;99.90
40696;DHT22;40425;51.102;17.208;2023-05-16T16:14:25;14.70;99.90
40696;DHT22;40425;51.102;17.208;2023-05-16T16:19:26;14.40;99.90
40696;DHT22;40425;51.102;17.208;2023-05-16T16:24:27;14.40;99.90
40696;DHT22;40425;51.102;17.208;2023-05-16T16:29:27;14.10;99.90
40696;DHT22;40425;51.102;17.208;2023-05-16T16:34:28;14.10;99.90
40696;DHT22;40425;51.102;17.208;2023-05-16T16:39:29;14.00;99.90
40696;DHT22;40425;51.102;17.208;2023-05-16T16:44:30;14.10;99.90
40696;DHT22;40425;51.102;17.208;2023-05-16T16:49:31;13.90;99.90
40696;DHT22;40425;51.102;17.208;2023-05-16T16:54:32;13.90;99.90
40696;DHT22;40425;51.102;17.208;2023-05-16T16:59:33;13.80;99.90
40696;DHT22;40425;51.102;17.208;2023-05-16T17:04:34;13.60;99.90
40696;DHT22;40425;51.102;17.208;2023-05-16T17:09:35;13.50;99.90
40696;DHT22;40425;51.102;17.208;2023-05-16T17:14:36;13.70;99.90
40696;DHT22;40425;51.102;17.208;2023-05-16T17:19:37;13.50;99.90
40696;DHT22;40425;51.102;17.208;2023-05-16T17:24:38;13.50;99.90
40696;DHT22;40425;51.102;17.208;2023-05-16T17:29:39;13.50;99.90
40696;DHT22;40425;51.102;17.208;2023-05-16T17:34:40;13.40;99.90
40696;DHT22;40425;51.102;17.208;2023-05-16T17:39:41;13.30;99.90
40696;DHT22;40425;51.102;17.208;2023-05-16T17:44:42;13.40;99.90
40696;DHT22;40425;51.102;17.208;2023-05-16T17:49:43;13.50;99.90
40696;DHT22;40425;51.102;17.208;2023-05-16T17:54:44;13.30;99.90
40696;DHT22;40425;51.102;17.208;2023-05-16T17:59:44;13.50;99.90
40696;DHT22;40425;51.102;17.208;2023-05-16T18:04:45;13.20;99.90
40696;DHT22;40425;51.102;17.208;2023-05-16T18:09:47;12.30;99.90
40696;DHT22;40425;51.102;17.208;2023-05-16T18:14:48;12.70;99.90
40696;DHT22;40425;51.102;17.208;2023-05-16T18:19:49;13.60;99.90
40696;DHT22;40425;51.102;17.208;2023-05-16T18:24:50;13.80;99.90
40696;DHT22;40425;51.102;17.208;2023-05-16T18:29:53;13.60;99.90
40696;DHT22;40425;51.102;17.208;2023-05-16T18:34:56;13.40;99.90
40696;DHT22;40425;51.102;17.208;2023-05-16T18:39:57;13.50;99.90
40696;DHT22;40425;51.102;17.208;2023-05-16T18:44:58;13.00;99.90
40696;DHT22;40425;51.102;17.208;2023-05-16T18:49:58;14.60;99.90
40696;DHT22;40425;51.102;17.208;2023-05-16T18:55:06;14.80;99.90
40696;DHT22;40425;51.102;17.208;2023-05-16T19:00:08;14.10;99.90
40696;DHT22;40425;51.102;17.208;2023-05-16T19:05:12;13.50;99.90
40696;DHT22;40425;51.102;17.208;2023-05-16T19:10:15;14.20;99.90
40696;DHT22;40425;51.102;17.208;2023-05-16T19:15:19;15.20;99.90
40696;DHT22;40425;51.102;17.208;2023-05-16T19:20:22;14.50;99.90
40696;DHT22;40425;51.102;17.208;2023-05-16T19:25:23;13.50;99.90
40696;DHT22;40425;51.102;17.208;2023-05-16T19:30:24;14.80;99.90
40696;DHT22;40425;51.102;17.208;2023-05-16T19:35:25;13.40;99.90
40696;DHT22;40425;51.102;17.208;2023-05-16T19:40:26;14.00;99.90
40696;DHT22;40425;51.102;17.208;2023-05-16T19:45:27;15.80;99.90
40696;DHT22;40425;51.102;17.208;2023-05-16T19:50:28;14.00;99.90
40696;DHT22;40425;51.102;17.208;2023-05-16T19:55:29;14.60;99.90
40696;DHT22;40425;51.102;17.208;2023-05-16T20:00:30;15.60;99.90
40696;DHT22;40425;51.102;17.208;2023-05-16T20:05:31;15.60;99.90
40696;DHT22;40425;51.102;17.208;2023-05-16T20:10:32;15.60;99.90
40696;DHT22;40425;51.102;17.208;2023-05-16T20:15:36;15.10;99.90
40696;DHT22;40425;51.102;17.208;2023-05-16T20:20:39;15.50;99.90
40696;DHT22;40425;51.102;17.208;2023-05-16T20:25:41;14.70;99.90
40696;DHT22;40425;51.102;17.208;2023-05-16T20:30:44;14.60;99.90
40696;DHT22;40425;51.102;17.208;2023-05-16T20:35:47;14.40;99.90
40696;DHT22;40425;51.102;17.208;2023-05-16T20:40:51;15.10;99.90
40696;DHT22;40425;51.102;17.208;2023-05-16T20:45:52;14.90;99.90
40696;DHT22;40425;51.102;17.208;2023-05-16T20:50:53;15.00;99.90
40696;DHT22;40425;51.102;17.208;2023-05-16T20:55:55;13.80;99.90
40696;DHT22;40425;51.102;17.208;2023-05-16T21:00:56;12.70;99.90
40696;DHT22;40425;51.102;17.208;2023-05-16T21:05:57;12.90;99.90
40696;DHT22;40425;51.102;17.208;2023-05-16T21:10:58;15.20;99.90
40696;DHT22;40425;51.102;17.208;2023-05-16T21:15:59;14.10;99.90
40696;DHT22;40425;51.102;17.208;2023-05-16T21:21:00;13.10;99.90
40696;DHT22;40425;51.102;17.208;2023-05-16T21:26:01;14.80;99.90
40696;DHT22;40425;51.102;17.208;2023-05-16T21:31:02;15.00;99.90
40696;DHT22;40425;51.102;17.208;2023-05-16T21:36:03;14.90;99.90
40696;DHT22;40425;51.102;17.208;2023-05-16T21:41:04;13.70;99.90
40696;DHT22;40425;51.102;17.208;2023-05-16T21:46:05;13.80;99.90
40696;DHT22;40425;51.102;17.208;2023-05-16T21:51:06;13.40;99.90
40696;DHT22;40425;51.102;17.208;2023-05-16T21:56:07;14.60;99.90
40696;DHT22;40425;51.102;17.208;2023-05-16T22:01:08;13.20;99.90
40696;DHT22;40425;51.102;17.208;2023-05-16T22:06:09;15.00;99.90
40696;DHT22;40425;51.102;17.208;2023-05-16T22:11:10;13.00;99.90
40696;DHT22;40425;51.102;17.208;2023-05-16T22:16:11;14.60;99.90
40696;DHT22;40425;51.102;17.208;2023-05-16T22:21:12;13.40;99.90
40696;DHT22;40425;51.102;17.208;2023-05-16T22:26:15;12.80;99.90
40696;DHT22;40425;51.102;17.208;2023-05-16T22:31:16;15.60;99.90
40696;DHT22;40425;51.102;17.208;2023-05-16T22:36:17;15.80;99.90
40696;DHT22;40425;51.102;17.208;2023-05-16T22:41:18;14.90;99.90
40696;DHT22;40425;51.102;17.208;2023-05-16T22:46:18;13.10;99.90
40696;DHT22;40425;51.102;17.208;2023-05-16T22:51:19;14.40;99.90
40696;DHT22;40425;51.102;17.208;2023-05-16T22:56:20;13.20;99.90
40696;DHT22;40425;51.102;17.208;2023-05-16T23:01:21;15.90;99.90
40696;DHT22;40425;51.102;17.208;2023-05-16T23:06:22;13.90;99.90
40696;DHT22;40425;51.102;17.208;2023-05-16T23:11:23;14.70;99.90
40696;DHT22;40425;51.102;17.208;2023-05-16T23:16:23;15.60;99.90
40696;DHT22;40425;51.102;17.208;2023-05-16T23:21:24;15.40;99.90
40696;DHT22;40425;51.102;17.208;2023-05-16T23:26:25;15.40;99.90
40696;DHT22;40425;51.102;17.208;2023-05-16T23:31:26;16.00;99.90
40696;DHT22;40425;51.102;17.208;2023-05-16T23:36:27;15.90;99.90
40696;DHT22;40425;51.102;17.208;2023-05-16T23:41:28;13.50;99.90
40696;DHT22;40425;51.102;17.208;2023-05-16T23:46:28;15.90;99.90
40696;DHT22;40425;51.102;17.208;2023-05-16T23:51:29;16.10;99.90
40696;DHT22;40425;51.102;17.208;2023-05-16T23:56:30;14.00;99.90
